sensor_id;sensor_type;location;lat;lon;timestamp;P1;durP1;ratioP1;P2;durP2;ratioP2
21554;SDS011;10938;44.794;-0.676;2022-12-07T00:02:14;18.13;;;11.45;;
21554;SDS011;10938;44.794;-0.676;2022-12-07T00:04:39;17.50;;;11.55;;
21554;SDS011;10938;44.794;-0.676;2022-12-07T00:07:05;18.08;;;11.80;;
21554;SDS011;10938;44.794;-0.676;2022-12-07T00:09:30;15.77;;;11.25;;
21554;SDS011;10938;44.794;-0.676;2022-12-07T00:11:56;20.88;;;12.07;;
21554;SDS011;10938;44.794;-0.676;2022-12-07T00:14:21;15.68;;;11.38;;
21554;SDS011;10938;44.794;-0.676;2022-12-07T00:16:48;16.98;;;11.65;;
21554;SDS011;10938;44.794;-0.676;2022-12-07T00:19:15;16.13;;;11.38;;
21554;SDS011;10938;44.794;-0.676;2022-12-07T00:21:41;14.88;;;10.82;;
21554;SDS011;10938;44.794;-0.676;2022-12-07T00:24:07;17.40;;;11.77;;
21554;SDS011;10938;44.794;-0.676;2022-12-07T00:26:34;15.73;;;11.35;;
21554;SDS011;10938;44.794;-0.676;2022-12-07T00:29:02;16.08;;;11.63;;
21554;SDS011;10938;44.794;-0.676;2022-12-07T00:31:32;16.77;;;11.57;;
21554;SDS011;10938;44.794;-0.676;2022-12-07T00:34:00;15.00;;;11.20;;
21554;SDS011;10938;44.794;-0.676;2022-12-07T00:36:26;17.80;;;11.52;;
21554;SDS011;10938;44.794;-0.676;2022-12-07T00:38:51;16.75;;;12.23;;
21554;SDS011;10938;44.794;-0.676;2022-12-07T00:41:21;14.65;;;11.75;;
21554;SDS011;10938;44.794;-0.676;2022-12-07T00:43:49;15.80;;;11.63;;
21554;SDS011;10938;44.794;-0.676;2022-12-07T00:46:15;15.98;;;11.80;;
21554;SDS011;10938;44.794;-0.676;2022-12-07T00:48:41;15.15;;;11.40;;
21554;SDS011;10938;44.794;-0.676;2022-12-07T00:51:07;17.10;;;12.38;;
21554;SDS011;10938;44.794;-0.676;2022-12-07T00:53:34;16.92;;;12.00;;
21554;SDS011;10938;44.794;-0.676;2022-12-07T00:56:13;17.52;;;12.73;;
21554;SDS011;10938;44.794;-0.676;2022-12-07T00:58:40;16.40;;;12.35;;
21554;SDS011;10938;44.794;-0.676;2022-12-07T01:01:06;17.02;;;12.07;;
21554;SDS011;10938;44.794;-0.676;2022-12-07T01:03:33;17.98;;;12.88;;
21554;SDS011;10938;44.794;-0.676;2022-12-07T01:05:59;17.58;;;12.70;;
21554;SDS011;10938;44.794;-0.676;2022-12-07T01:08:25;21.00;;;13.02;;
21554;SDS011;10938;44.794;-0.676;2022-12-07T01:11:02;19.77;;;13.00;;
21554;SDS011;10938;44.794;-0.676;2022-12-07T01:13:30;18.33;;;13.20;;
21554;SDS011;10938;44.794;-0.676;2022-12-07T01:15:57;16.65;;;12.68;;
21554;SDS011;10938;44.794;-0.676;2022-12-07T01:18:27;18.20;;;13.73;;
21554;SDS011;10938;44.794;-0.676;2022-12-07T01:21:04;20.25;;;13.50;;
21554;SDS011;10938;44.794;-0.676;2022-12-07T01:25:56;20.93;;;14.07;;
21554;SDS011;10938;44.794;-0.676;2022-12-07T01:28:22;20.92;;;14.05;;
21554;SDS011;10938;44.794;-0.676;2022-12-07T01:30:55;21.20;;;13.98;;
21554;SDS011;10938;44.794;-0.676;2022-12-07T01:33:21;20.02;;;14.13;;
21554;SDS011;10938;44.794;-0.676;2022-12-07T01:35:46;18.58;;;12.73;;
21554;SDS011;10938;44.794;-0.676;2022-12-07T01:38:11;21.17;;;13.88;;
21554;SDS011;10938;44.794;-0.676;2022-12-07T01:40:37;20.27;;;14.15;;
21554;SDS011;10938;44.794;-0.676;2022-12-07T01:43:04;19.02;;;14.38;;
21554;SDS011;10938;44.794;-0.676;2022-12-07T01:45:40;19.95;;;14.32;;
21554;SDS011;10938;44.794;-0.676;2022-12-07T01:48:09;21.67;;;15.23;;
21554;SDS011;10938;44.794;-0.676;2022-12-07T01:50:43;22.48;;;15.27;;
21554;SDS011;10938;44.794;-0.676;2022-12-07T01:53:13;24.10;;;17.10;;
21554;SDS011;10938;44.794;-0.676;2022-12-07T01:55:40;27.50;;;17.02;;
21554;SDS011;10938;44.794;-0.676;2022-12-07T01:58:08;25.52;;;17.30;;
21554;SDS011;10938;44.794;-0.676;2022-12-07T02:08:02;29.02;;;18.88;;
21554;SDS011;10938;44.794;-0.676;2022-12-07T02:11:18;28.58;;;18.55;;
21554;SDS011;10938;44.794;-0.676;2022-12-07T02:24:45;35.10;;;20.95;;
21554;SDS011;10938;44.794;-0.676;2022-12-07T02:31:20;34.47;;;22.10;;
21554;SDS011;10938;44.794;-0.676;2022-12-07T02:45:17;38.55;;;23.48;;
21554;SDS011;10938;44.794;-0.676;2022-12-07T02:49:07;39.50;;;24.88;;
21554;SDS011;10938;44.794;-0.676;2022-12-07T02:51:45;34.90;;;23.60;;
21554;SDS011;10938;44.794;-0.676;2022-12-07T02:54:38;38.50;;;23.95;;
21554;SDS011;10938;44.794;-0.676;2022-12-07T03:01:01;39.60;;;24.63;;
21554;SDS011;10938;44.794;-0.676;2022-12-07T03:03:58;41.63;;;23.58;;
21554;SDS011;10938;44.794;-0.676;2022-12-07T03:06:49;40.88;;;23.05;;
21554;SDS011;10938;44.794;-0.676;2022-12-07T03:09:44;40.95;;;19.38;;
21554;SDS011;10938;44.794;-0.676;2022-12-07T03:12:16;42.00;;;22.48;;
21554;SDS011;10938;44.794;-0.676;2022-12-07T03:14:47;89.00;;;25.85;;
21554;SDS011;10938;44.794;-0.676;2022-12-07T03:17:20;67.80;;;23.08;;
21554;SDS011;10938;44.794;-0.676;2022-12-07T03:19:50;145.40;;;24.30;;
21554;SDS011;10938;44.794;-0.676;2022-12-07T03:22:19;62.85;;;22.40;;
21554;SDS011;10938;44.794;-0.676;2022-12-07T03:24:49;57.75;;;21.90;;
21554;SDS011;10938;44.794;-0.676;2022-12-07T03:27:22;127.20;;;22.67;;
21554;SDS011;10938;44.794;-0.676;2022-12-07T03:30:04;99.38;;;22.88;;
21554;SDS011;10938;44.794;-0.676;2022-12-07T03:32:42;126.82;;;21.15;;
21554;SDS011;10938;44.794;-0.676;2022-12-07T03:35:22;100.68;;;22.02;;
21554;SDS011;10938;44.794;-0.676;2022-12-07T03:41:01;55.72;;;21.45;;
21554;SDS011;10938;44.794;-0.676;2022-12-07T03:43:35;48.05;;;21.10;;
21554;SDS011;10938;44.794;-0.676;2022-12-07T03:54:37;66.00;;;24.33;;
21554;SDS011;10938;44.794;-0.676;2022-12-07T03:57:07;74.22;;;23.33;;
21554;SDS011;10938;44.794;-0.676;2022-12-07T03:59:38;59.13;;;22.73;;
21554;SDS011;10938;44.794;-0.676;2022-12-07T04:02:11;55.05;;;22.33;;
21554;SDS011;10938;44.794;-0.676;2022-12-07T04:04:41;62.72;;;22.00;;
21554;SDS011;10938;44.794;-0.676;2022-12-07T04:07:12;60.53;;;22.95;;
21554;SDS011;10938;44.794;-0.676;2022-12-07T04:09:38;85.57;;;24.02;;
21554;SDS011;10938;44.794;-0.676;2022-12-07T04:12:04;76.70;;;24.48;;
21554;SDS011;10938;44.794;-0.676;2022-12-07T04:14:30;47.88;;;23.08;;
21554;SDS011;10938;44.794;-0.676;2022-12-07T04:16:58;61.70;;;26.05;;
21554;SDS011;10938;44.794;-0.676;2022-12-07T04:19:25;138.38;;;27.30;;
21554;SDS011;10938;44.794;-0.676;2022-12-07T04:21:53;72.05;;;25.25;;
21554;SDS011;10938;44.794;-0.676;2022-12-07T04:24:21;81.10;;;26.77;;
21554;SDS011;10938;44.794;-0.676;2022-12-07T04:26:47;92.35;;;26.52;;
21554;SDS011;10938;44.794;-0.676;2022-12-07T04:29:13;62.78;;;26.33;;
21554;SDS011;10938;44.794;-0.676;2022-12-07T04:31:40;95.93;;;25.95;;
21554;SDS011;10938;44.794;-0.676;2022-12-07T04:34:07;55.42;;;22.52;;
21554;SDS011;10938;44.794;-0.676;2022-12-07T04:36:33;73.88;;;22.90;;
21554;SDS011;10938;44.794;-0.676;2022-12-07T04:38:59;38.92;;;22.35;;
21554;SDS011;10938;44.794;-0.676;2022-12-07T04:41:26;71.57;;;21.27;;
21554;SDS011;10938;44.794;-0.676;2022-12-07T04:43:57;228.13;;;24.40;;
21554;SDS011;10938;44.794;-0.676;2022-12-07T04:46:28;38.78;;;20.33;;
21554;SDS011;10938;44.794;-0.676;2022-12-07T04:48:54;36.92;;;20.00;;
21554;SDS011;10938;44.794;-0.676;2022-12-07T04:51:22;174.23;;;24.67;;
21554;SDS011;10938;44.794;-0.676;2022-12-07T04:53:51;200.93;;;25.88;;
21554;SDS011;10938;44.794;-0.676;2022-12-07T04:56:17;161.43;;;25.75;;
21554;SDS011;10938;44.794;-0.676;2022-12-07T04:58:44;161.73;;;25.40;;
21554;SDS011;10938;44.794;-0.676;2022-12-07T05:01:10;128.27;;;25.50;;
21554;SDS011;10938;44.794;-0.676;2022-12-07T05:03:37;51.38;;;23.33;;
21554;SDS011;10938;44.794;-0.676;2022-12-07T05:06:04;57.13;;;21.40;;
21554;SDS011;10938;44.794;-0.676;2022-12-07T05:08:34;120.50;;;22.17;;
21554;SDS011;10938;44.794;-0.676;2022-12-07T05:11:01;98.80;;;21.00;;
21554;SDS011;10938;44.794;-0.676;2022-12-07T05:13:31;63.58;;;20.48;;
21554;SDS011;10938;44.794;-0.676;2022-12-07T05:15:57;55.20;;;20.65;;
21554;SDS011;10938;44.794;-0.676;2022-12-07T05:18:23;101.75;;;21.90;;
21554;SDS011;10938;44.794;-0.676;2022-12-07T05:20:50;162.75;;;24.75;;
21554;SDS011;10938;44.794;-0.676;2022-12-07T05:23:16;63.70;;;21.15;;
21554;SDS011;10938;44.794;-0.676;2022-12-07T05:25:42;56.92;;;20.75;;
21554;SDS011;10938;44.794;-0.676;2022-12-07T05:28:08;68.60;;;22.60;;
21554;SDS011;10938;44.794;-0.676;2022-12-07T05:30:35;34.72;;;18.48;;
21554;SDS011;10938;44.794;-0.676;2022-12-07T05:33:00;28.25;;;17.77;;
21554;SDS011;10938;44.794;-0.676;2022-12-07T05:35:26;32.85;;;16.77;;
21554;SDS011;10938;44.794;-0.676;2022-12-07T05:37:53;85.72;;;18.98;;
21554;SDS011;10938;44.794;-0.676;2022-12-07T05:40:18;41.05;;;18.38;;
21554;SDS011;10938;44.794;-0.676;2022-12-07T05:42:44;37.88;;;18.63;;
21554;SDS011;10938;44.794;-0.676;2022-12-07T05:45:11;36.97;;;17.75;;
21554;SDS011;10938;44.794;-0.676;2022-12-07T05:47:36;31.38;;;19.00;;
21554;SDS011;10938;44.794;-0.676;2022-12-07T05:50:03;29.95;;;17.98;;
21554;SDS011;10938;44.794;-0.676;2022-12-07T05:52:30;32.50;;;19.48;;
21554;SDS011;10938;44.794;-0.676;2022-12-07T05:54:56;29.98;;;17.13;;
21554;SDS011;10938;44.794;-0.676;2022-12-07T05:57:21;30.42;;;17.75;;
21554;SDS011;10938;44.794;-0.676;2022-12-07T05:59:48;32.80;;;17.05;;
21554;SDS011;10938;44.794;-0.676;2022-12-07T06:02:14;31.17;;;18.00;;
21554;SDS011;10938;44.794;-0.676;2022-12-07T06:04:41;28.50;;;17.58;;
21554;SDS011;10938;44.794;-0.676;2022-12-07T06:07:12;29.30;;;17.50;;
21554;SDS011;10938;44.794;-0.676;2022-12-07T06:09:40;35.10;;;18.75;;
21554;SDS011;10938;44.794;-0.676;2022-12-07T06:12:09;34.80;;;18.63;;
21554;SDS011;10938;44.794;-0.676;2022-12-07T06:14:54;29.77;;;17.90;;
21554;SDS011;10938;44.794;-0.676;2022-12-07T06:17:21;29.27;;;18.27;;
21554;SDS011;10938;44.794;-0.676;2022-12-07T06:19:47;32.50;;;19.27;;
21554;SDS011;10938;44.794;-0.676;2022-12-07T06:22:14;34.92;;;20.42;;
21554;SDS011;10938;44.794;-0.676;2022-12-07T06:24:42;36.78;;;20.13;;
21554;SDS011;10938;44.794;-0.676;2022-12-07T06:27:11;29.65;;;18.63;;
21554;SDS011;10938;44.794;-0.676;2022-12-07T06:29:39;30.70;;;19.58;;
21554;SDS011;10938;44.794;-0.676;2022-12-07T06:32:05;31.17;;;19.65;;
21554;SDS011;10938;44.794;-0.676;2022-12-07T06:34:30;30.02;;;19.50;;
21554;SDS011;10938;44.794;-0.676;2022-12-07T06:36:56;34.08;;;20.08;;
21554;SDS011;10938;44.794;-0.676;2022-12-07T06:39:23;31.48;;;18.08;;
21554;SDS011;10938;44.794;-0.676;2022-12-07T06:41:51;35.33;;;20.63;;
21554;SDS011;10938;44.794;-0.676;2022-12-07T06:44:17;33.67;;;19.08;;
21554;SDS011;10938;44.794;-0.676;2022-12-07T06:46:44;33.55;;;19.45;;
21554;SDS011;10938;44.794;-0.676;2022-12-07T06:49:12;31.42;;;18.98;;
21554;SDS011;10938;44.794;-0.676;2022-12-07T06:51:40;35.67;;;20.52;;
21554;SDS011;10938;44.794;-0.676;2022-12-07T06:54:07;32.58;;;20.33;;
21554;SDS011;10938;44.794;-0.676;2022-12-07T06:56:33;32.90;;;19.63;;
21554;SDS011;10938;44.794;-0.676;2022-12-07T06:58:59;34.38;;;21.52;;
21554;SDS011;10938;44.794;-0.676;2022-12-07T07:01:27;32.33;;;19.85;;
21554;SDS011;10938;44.794;-0.676;2022-12-07T07:03:52;30.88;;;19.55;;
21554;SDS011;10938;44.794;-0.676;2022-12-07T07:06:19;32.40;;;19.33;;
21554;SDS011;10938;44.794;-0.676;2022-12-07T07:08:48;32.80;;;19.45;;
21554;SDS011;10938;44.794;-0.676;2022-12-07T07:11:23;33.97;;;20.67;;
21554;SDS011;10938;44.794;-0.676;2022-12-07T07:13:53;32.53;;;19.48;;
21554;SDS011;10938;44.794;-0.676;2022-12-07T07:16:21;35.20;;;20.17;;
21554;SDS011;10938;44.794;-0.676;2022-12-07T07:18:47;32.95;;;19.48;;
21554;SDS011;10938;44.794;-0.676;2022-12-07T07:21:13;33.35;;;20.77;;
21554;SDS011;10938;44.794;-0.676;2022-12-07T07:23:39;33.10;;;20.48;;
21554;SDS011;10938;44.794;-0.676;2022-12-07T07:26:04;33.28;;;20.25;;
21554;SDS011;10938;44.794;-0.676;2022-12-07T07:28:29;36.28;;;21.17;;
21554;SDS011;10938;44.794;-0.676;2022-12-07T07:30:55;34.53;;;20.30;;
21554;SDS011;10938;44.794;-0.676;2022-12-07T07:33:20;30.60;;;19.20;;
21554;SDS011;10938;44.794;-0.676;2022-12-07T07:35:46;32.85;;;20.48;;
21554;SDS011;10938;44.794;-0.676;2022-12-07T07:38:15;35.30;;;20.52;;
21554;SDS011;10938;44.794;-0.676;2022-12-07T07:40:43;35.58;;;21.20;;
21554;SDS011;10938;44.794;-0.676;2022-12-07T07:43:10;33.58;;;20.52;;
21554;SDS011;10938;44.794;-0.676;2022-12-07T07:45:35;30.67;;;18.35;;
21554;SDS011;10938;44.794;-0.676;2022-12-07T07:48:01;27.95;;;19.00;;
21554;SDS011;10938;44.794;-0.676;2022-12-07T07:50:26;27.02;;;17.48;;
21554;SDS011;10938;44.794;-0.676;2022-12-07T07:52:52;28.60;;;18.52;;
21554;SDS011;10938;44.794;-0.676;2022-12-07T07:55:19;31.83;;;19.38;;
21554;SDS011;10938;44.794;-0.676;2022-12-07T07:57:45;29.80;;;18.50;;
21554;SDS011;10938;44.794;-0.676;2022-12-07T08:00:12;30.35;;;18.10;;
21554;SDS011;10938;44.794;-0.676;2022-12-07T08:02:42;29.80;;;18.17;;
21554;SDS011;10938;44.794;-0.676;2022-12-07T08:05:08;31.30;;;19.38;;
21554;SDS011;10938;44.794;-0.676;2022-12-07T08:07:35;35.10;;;18.55;;
21554;SDS011;10938;44.794;-0.676;2022-12-07T08:10:01;30.90;;;18.48;;
21554;SDS011;10938;44.794;-0.676;2022-12-07T08:12:26;27.92;;;18.58;;
21554;SDS011;10938;44.794;-0.676;2022-12-07T08:14:52;30.17;;;17.02;;
21554;SDS011;10938;44.794;-0.676;2022-12-07T08:17:18;30.17;;;18.77;;
21554;SDS011;10938;44.794;-0.676;2022-12-07T08:19:45;28.73;;;17.92;;
21554;SDS011;10938;44.794;-0.676;2022-12-07T08:22:11;27.10;;;17.23;;
21554;SDS011;10938;44.794;-0.676;2022-12-07T08:24:37;42.22;;;25.70;;
21554;SDS011;10938;44.794;-0.676;2022-12-07T08:27:05;31.27;;;18.70;;
21554;SDS011;10938;44.794;-0.676;2022-12-07T08:29:30;31.55;;;18.70;;
21554;SDS011;10938;44.794;-0.676;2022-12-07T08:31:56;33.00;;;22.17;;
21554;SDS011;10938;44.794;-0.676;2022-12-07T08:34:21;38.17;;;22.88;;
21554;SDS011;10938;44.794;-0.676;2022-12-07T08:36:47;37.05;;;24.33;;
21554;SDS011;10938;44.794;-0.676;2022-12-07T08:39:12;31.95;;;20.30;;
21554;SDS011;10938;44.794;-0.676;2022-12-07T08:41:38;28.00;;;19.25;;
21554;SDS011;10938;44.794;-0.676;2022-12-07T08:54:14;25.70;;;15.48;;
21554;SDS011;10938;44.794;-0.676;2022-12-07T08:56:41;26.65;;;15.77;;
21554;SDS011;10938;44.794;-0.676;2022-12-07T08:59:08;27.38;;;16.63;;
21554;SDS011;10938;44.794;-0.676;2022-12-07T09:01:34;27.70;;;17.02;;
21554;SDS011;10938;44.794;-0.676;2022-12-07T09:03:59;32.83;;;24.35;;
21554;SDS011;10938;44.794;-0.676;2022-12-07T09:06:25;27.13;;;18.52;;
21554;SDS011;10938;44.794;-0.676;2022-12-07T09:08:51;30.05;;;17.88;;
21554;SDS011;10938;44.794;-0.676;2022-12-07T09:11:20;29.15;;;16.90;;
21554;SDS011;10938;44.794;-0.676;2022-12-07T09:13:46;25.80;;;15.75;;
21554;SDS011;10938;44.794;-0.676;2022-12-07T09:16:11;29.95;;;15.00;;
21554;SDS011;10938;44.794;-0.676;2022-12-07T09:18:37;27.50;;;16.67;;
21554;SDS011;10938;44.794;-0.676;2022-12-07T09:21:03;25.00;;;16.75;;
21554;SDS011;10938;44.794;-0.676;2022-12-07T09:23:29;29.48;;;17.60;;
21554;SDS011;10938;44.794;-0.676;2022-12-07T09:25:58;24.70;;;16.60;;
21554;SDS011;10938;44.794;-0.676;2022-12-07T09:28:25;26.27;;;16.42;;
21554;SDS011;10938;44.794;-0.676;2022-12-07T09:30:50;22.48;;;15.10;;
21554;SDS011;10938;44.794;-0.676;2022-12-07T09:33:16;24.77;;;16.27;;
21554;SDS011;10938;44.794;-0.676;2022-12-07T09:35:46;25.90;;;17.35;;
21554;SDS011;10938;44.794;-0.676;2022-12-07T09:38:13;23.63;;;16.00;;
21554;SDS011;10938;44.794;-0.676;2022-12-07T09:40:39;23.58;;;14.18;;
21554;SDS011;10938;44.794;-0.676;2022-12-07T09:43:15;23.10;;;14.25;;
21554;SDS011;10938;44.794;-0.676;2022-12-07T09:45:45;19.55;;;13.75;;
21554;SDS011;10938;44.794;-0.676;2022-12-07T09:48:17;23.27;;;15.82;;
21554;SDS011;10938;44.794;-0.676;2022-12-07T09:50:44;22.83;;;14.23;;
21554;SDS011;10938;44.794;-0.676;2022-12-07T09:53:23;27.38;;;17.48;;
21554;SDS011;10938;44.794;-0.676;2022-12-07T09:55:51;22.27;;;15.27;;
21554;SDS011;10938;44.794;-0.676;2022-12-07T09:58:22;32.08;;;20.63;;
21554;SDS011;10938;44.794;-0.676;2022-12-07T10:01:00;37.75;;;21.05;;
21554;SDS011;10938;44.794;-0.676;2022-12-07T10:03:35;26.85;;;16.52;;
21554;SDS011;10938;44.794;-0.676;2022-12-07T10:06:03;23.90;;;14.60;;
21554;SDS011;10938;44.794;-0.676;2022-12-07T10:08:30;21.35;;;13.38;;
21554;SDS011;10938;44.794;-0.676;2022-12-07T10:10:56;25.88;;;15.10;;
21554;SDS011;10938;44.794;-0.676;2022-12-07T10:13:36;28.88;;;17.63;;
21554;SDS011;10938;44.794;-0.676;2022-12-07T10:16:25;24.70;;;14.57;;
21554;SDS011;10938;44.794;-0.676;2022-12-07T10:19:19;19.50;;;12.65;;
21554;SDS011;10938;44.794;-0.676;2022-12-07T10:24:36;18.92;;;12.57;;
21554;SDS011;10938;44.794;-0.676;2022-12-07T10:27:16;33.05;;;17.70;;
21554;SDS011;10938;44.794;-0.676;2022-12-07T10:29:54;18.80;;;11.75;;
21554;SDS011;10938;44.794;-0.676;2022-12-07T10:34:45;26.27;;;15.63;;
21554;SDS011;10938;44.794;-0.676;2022-12-07T10:39:52;25.48;;;15.63;;
21554;SDS011;10938;44.794;-0.676;2022-12-07T10:42:23;20.00;;;12.35;;
21554;SDS011;10938;44.794;-0.676;2022-12-07T10:56:22;19.83;;;11.23;;
21554;SDS011;10938;44.794;-0.676;2022-12-07T11:01:45;18.25;;;12.18;;
21554;SDS011;10938;44.794;-0.676;2022-12-07T11:09:54;16.58;;;11.20;;
21554;SDS011;10938;44.794;-0.676;2022-12-07T11:15:16;17.00;;;11.38;;
21554;SDS011;10938;44.794;-0.676;2022-12-07T11:26:00;19.00;;;11.93;;
21554;SDS011;10938;44.794;-0.676;2022-12-07T11:36:49;18.92;;;13.07;;
21554;SDS011;10938;44.794;-0.676;2022-12-07T11:39:22;20.27;;;13.75;;
21554;SDS011;10938;44.794;-0.676;2022-12-07T11:41:56;19.95;;;13.38;;
21554;SDS011;10938;44.794;-0.676;2022-12-07T11:47:09;18.30;;;12.27;;
21554;SDS011;10938;44.794;-0.676;2022-12-07T11:55:19;23.85;;;15.63;;
21554;SDS011;10938;44.794;-0.676;2022-12-07T11:57:51;25.20;;;15.10;;
21554;SDS011;10938;44.794;-0.676;2022-12-07T12:00:35;22.75;;;14.73;;
21554;SDS011;10938;44.794;-0.676;2022-12-07T12:03:09;16.67;;;11.75;;
21554;SDS011;10938;44.794;-0.676;2022-12-07T12:05:41;15.45;;;10.18;;
21554;SDS011;10938;44.794;-0.676;2022-12-07T12:08:18;16.67;;;10.07;;
21554;SDS011;10938;44.794;-0.676;2022-12-07T12:16:44;14.75;;;10.05;;
21554;SDS011;10938;44.794;-0.676;2022-12-07T12:22:08;15.63;;;9.85;;
21554;SDS011;10938;44.794;-0.676;2022-12-07T12:24:40;13.20;;;8.95;;
21554;SDS011;10938;44.794;-0.676;2022-12-07T12:27:22;12.63;;;9.38;;
21554;SDS011;10938;44.794;-0.676;2022-12-07T12:29:55;12.02;;;8.23;;
21554;SDS011;10938;44.794;-0.676;2022-12-07T12:32:36;11.70;;;7.68;;
21554;SDS011;10938;44.794;-0.676;2022-12-07T12:37:54;10.43;;;6.95;;
21554;SDS011;10938;44.794;-0.676;2022-12-07T12:42:53;12.77;;;8.18;;
21554;SDS011;10938;44.794;-0.676;2022-12-07T12:45:24;11.50;;;7.75;;
21554;SDS011;10938;44.794;-0.676;2022-12-07T12:47:58;11.68;;;7.78;;
21554;SDS011;10938;44.794;-0.676;2022-12-07T12:50:32;14.68;;;9.40;;
21554;SDS011;10938;44.794;-0.676;2022-12-07T12:52:58;11.38;;;7.60;;
21554;SDS011;10938;44.794;-0.676;2022-12-07T13:00:47;10.73;;;7.68;;
21554;SDS011;10938;44.794;-0.676;2022-12-07T13:03:34;11.80;;;7.57;;
21554;SDS011;10938;44.794;-0.676;2022-12-07T13:06:31;10.48;;;7.90;;
21554;SDS011;10938;44.794;-0.676;2022-12-07T13:09:03;10.60;;;8.02;;
21554;SDS011;10938;44.794;-0.676;2022-12-07T13:11:43;11.88;;;7.10;;
21554;SDS011;10938;44.794;-0.676;2022-12-07T13:20:06;11.85;;;7.35;;
21554;SDS011;10938;44.794;-0.676;2022-12-07T13:25:07;10.63;;;7.47;;
21554;SDS011;10938;44.794;-0.676;2022-12-07T13:27:46;11.30;;;7.88;;
21554;SDS011;10938;44.794;-0.676;2022-12-07T13:30:21;13.07;;;7.82;;
21554;SDS011;10938;44.794;-0.676;2022-12-07T13:32:54;11.07;;;7.40;;
21554;SDS011;10938;44.794;-0.676;2022-12-07T13:37:53;11.43;;;8.10;;
21554;SDS011;10938;44.794;-0.676;2022-12-07T13:40:20;10.25;;;7.68;;
21554;SDS011;10938;44.794;-0.676;2022-12-07T13:42:56;11.98;;;8.10;;
21554;SDS011;10938;44.794;-0.676;2022-12-07T13:45:31;11.10;;;8.00;;
21554;SDS011;10938;44.794;-0.676;2022-12-07T13:48:33;14.38;;;8.68;;
21554;SDS011;10938;44.794;-0.676;2022-12-07T13:51:14;10.23;;;7.00;;
21554;SDS011;10938;44.794;-0.676;2022-12-07T13:53:55;14.65;;;10.15;;
21554;SDS011;10938;44.794;-0.676;2022-12-07T13:56:32;18.40;;;11.27;;
21554;SDS011;10938;44.794;-0.676;2022-12-07T13:59:03;14.55;;;10.32;;
21554;SDS011;10938;44.794;-0.676;2022-12-07T14:01:55;19.33;;;12.65;;
21554;SDS011;10938;44.794;-0.676;2022-12-07T14:04:37;13.27;;;8.85;;
21554;SDS011;10938;44.794;-0.676;2022-12-07T14:07:48;12.75;;;8.02;;
21554;SDS011;10938;44.794;-0.676;2022-12-07T14:10:27;28.15;;;12.43;;
21554;SDS011;10938;44.794;-0.676;2022-12-07T14:12:59;57.15;;;25.23;;
21554;SDS011;10938;44.794;-0.676;2022-12-07T14:15:31;58.05;;;27.20;;
21554;SDS011;10938;44.794;-0.676;2022-12-07T14:18:02;39.13;;;18.70;;
21554;SDS011;10938;44.794;-0.676;2022-12-07T14:20:36;29.73;;;15.40;;
21554;SDS011;10938;44.794;-0.676;2022-12-07T14:23:29;35.30;;;18.55;;
21554;SDS011;10938;44.794;-0.676;2022-12-07T14:25:54;22.88;;;13.27;;
21554;SDS011;10938;44.794;-0.676;2022-12-07T14:30:59;18.65;;;13.85;;
21554;SDS011;10938;44.794;-0.676;2022-12-07T14:33:26;17.73;;;13.80;;
21554;SDS011;10938;44.794;-0.676;2022-12-07T14:35:56;15.23;;;11.20;;
21554;SDS011;10938;44.794;-0.676;2022-12-07T14:38:26;15.52;;;10.05;;
21554;SDS011;10938;44.794;-0.676;2022-12-07T14:40:55;10.70;;;7.70;;
21554;SDS011;10938;44.794;-0.676;2022-12-07T14:43:44;11.55;;;7.95;;
21554;SDS011;10938;44.794;-0.676;2022-12-07T14:46:11;16.67;;;8.75;;
21554;SDS011;10938;44.794;-0.676;2022-12-07T14:48:37;13.90;;;9.45;;
21554;SDS011;10938;44.794;-0.676;2022-12-07T14:51:02;15.93;;;8.68;;
21554;SDS011;10938;44.794;-0.676;2022-12-07T14:53:35;15.27;;;9.20;;
21554;SDS011;10938;44.794;-0.676;2022-12-07T14:56:07;13.75;;;8.63;;
21554;SDS011;10938;44.794;-0.676;2022-12-07T14:58:35;14.63;;;8.45;;
21554;SDS011;10938;44.794;-0.676;2022-12-07T15:01:00;13.45;;;8.05;;
21554;SDS011;10938;44.794;-0.676;2022-12-07T15:03:26;12.98;;;8.23;;
21554;SDS011;10938;44.794;-0.676;2022-12-07T15:05:53;12.70;;;8.57;;
21554;SDS011;10938;44.794;-0.676;2022-12-07T15:08:23;13.18;;;10.32;;
21554;SDS011;10938;44.794;-0.676;2022-12-07T15:10:55;13.77;;;10.20;;
21554;SDS011;10938;44.794;-0.676;2022-12-07T15:13:27;12.38;;;8.57;;
21554;SDS011;10938;44.794;-0.676;2022-12-07T15:16:16;14.45;;;9.20;;
21554;SDS011;10938;44.794;-0.676;2022-12-07T15:18:47;15.02;;;10.07;;
21554;SDS011;10938;44.794;-0.676;2022-12-07T15:21:17;13.35;;;9.63;;
21554;SDS011;10938;44.794;-0.676;2022-12-07T15:23:43;12.95;;;9.35;;
21554;SDS011;10938;44.794;-0.676;2022-12-07T15:26:11;13.10;;;8.32;;
21554;SDS011;10938;44.794;-0.676;2022-12-07T15:28:36;14.98;;;9.63;;
21554;SDS011;10938;44.794;-0.676;2022-12-07T15:31:02;14.23;;;9.90;;
21554;SDS011;10938;44.794;-0.676;2022-12-07T15:33:27;16.42;;;10.30;;
21554;SDS011;10938;44.794;-0.676;2022-12-07T15:35:53;15.98;;;10.27;;
21554;SDS011;10938;44.794;-0.676;2022-12-07T15:38:19;13.65;;;9.65;;
21554;SDS011;10938;44.794;-0.676;2022-12-07T15:40:48;24.48;;;14.60;;
21554;SDS011;10938;44.794;-0.676;2022-12-07T15:43:14;38.53;;;22.90;;
21554;SDS011;10938;44.794;-0.676;2022-12-07T15:45:58;31.98;;;19.98;;
21554;SDS011;10938;44.794;-0.676;2022-12-07T15:48:28;23.92;;;15.05;;
21554;SDS011;10938;44.794;-0.676;2022-12-07T15:50:53;20.10;;;13.05;;
21554;SDS011;10938;44.794;-0.676;2022-12-07T15:53:27;19.27;;;12.43;;
21554;SDS011;10938;44.794;-0.676;2022-12-07T15:55:53;22.30;;;11.82;;
21554;SDS011;10938;44.794;-0.676;2022-12-07T15:58:18;23.48;;;12.20;;
21554;SDS011;10938;44.794;-0.676;2022-12-07T16:00:48;23.80;;;12.38;;
21554;SDS011;10938;44.794;-0.676;2022-12-07T16:03:17;22.17;;;11.98;;
21554;SDS011;10938;44.794;-0.676;2022-12-07T16:05:51;25.45;;;12.50;;
21554;SDS011;10938;44.794;-0.676;2022-12-07T16:08:18;23.98;;;13.55;;
21554;SDS011;10938;44.794;-0.676;2022-12-07T16:10:44;23.45;;;14.20;;
21554;SDS011;10938;44.794;-0.676;2022-12-07T16:13:10;27.15;;;13.82;;
21554;SDS011;10938;44.794;-0.676;2022-12-07T16:15:41;26.35;;;15.82;;
21554;SDS011;10938;44.794;-0.676;2022-12-07T16:18:08;28.48;;;18.60;;
21554;SDS011;10938;44.794;-0.676;2022-12-07T16:20:36;34.00;;;21.17;;
21554;SDS011;10938;44.794;-0.676;2022-12-07T16:23:02;31.05;;;19.17;;
21554;SDS011;10938;44.794;-0.676;2022-12-07T16:25:28;35.30;;;21.92;;
21554;SDS011;10938;44.794;-0.676;2022-12-07T16:27:54;47.75;;;24.33;;
21554;SDS011;10938;44.794;-0.676;2022-12-07T16:30:25;39.05;;;21.35;;
21554;SDS011;10938;44.794;-0.676;2022-12-07T16:32:51;42.42;;;23.08;;
21554;SDS011;10938;44.794;-0.676;2022-12-07T16:35:17;30.20;;;17.65;;
21554;SDS011;10938;44.794;-0.676;2022-12-07T16:37:47;28.27;;;14.68;;
21554;SDS011;10938;44.794;-0.676;2022-12-07T16:40:17;21.02;;;13.80;;
21554;SDS011;10938;44.794;-0.676;2022-12-07T16:42:43;22.15;;;12.30;;
21554;SDS011;10938;44.794;-0.676;2022-12-07T16:45:09;22.27;;;12.60;;
21554;SDS011;10938;44.794;-0.676;2022-12-07T16:47:42;17.30;;;11.30;;
21554;SDS011;10938;44.794;-0.676;2022-12-07T16:50:12;21.52;;;13.02;;
21554;SDS011;10938;44.794;-0.676;2022-12-07T16:52:39;19.85;;;12.20;;
21554;SDS011;10938;44.794;-0.676;2022-12-07T16:55:05;17.98;;;12.23;;
21554;SDS011;10938;44.794;-0.676;2022-12-07T16:57:31;23.13;;;13.38;;
21554;SDS011;10938;44.794;-0.676;2022-12-07T16:59:56;17.40;;;11.48;;